createdAt,value
2023-02-01T00:02:08.497Z,26.40
2023-02-01T00:04:44.147Z,26.50
2023-02-01T00:07:33.891Z,26.50
2023-02-01T00:10:09.851Z,26.70
2023-02-01T00:12:49.538Z,26.90
2023-02-01T00:15:39.819Z,27.00
2023-02-01T00:18:17.042Z,27.10
2023-02-01T00:20:53.085Z,27.00
2023-02-01T00:23:29.913Z,27.10
2023-02-01T00:26:14.021Z,27.20
2023-02-01T00:29:12.637Z,27.20
2023-02-01T00:31:56.423Z,27.20
2023-02-01T00:34:32.106Z,27.20
2023-02-01T00:37:43.240Z,27.00
2023-02-01T00:40:54.597Z,26.90
2023-02-01T00:47:01.529Z,26.70
2023-02-01T00:49:43.766Z,26.70
2023-02-01T00:52:23.292Z,26.80
2023-02-01T00:55:02.621Z,26.70
2023-02-01T00:57:38.504Z,26.70
2023-02-01T01:00:14.899Z,26.60
2023-02-01T01:02:59.591Z,26.60
2023-02-01T01:06:05.415Z,26.70
2023-02-01T01:09:41.758Z,26.80
2023-02-01T01:13:12.361Z,26.90
2023-02-01T01:16:41.045Z,27.00
2023-02-01T01:20:11.662Z,27.00
2023-02-01T01:26:51.818Z,27.00
2023-02-01T01:29:27.581Z,27.00
2023-02-01T01:32:04.060Z,27.20
2023-02-01T01:34:40.596Z,27.20
2023-02-01T01:37:20.603Z,27.30
2023-02-01T01:40:10.844Z,27.30
2023-02-01T01:42:48.970Z,27.30
2023-02-01T01:45:39.835Z,27.40
2023-02-01T01:48:19.124Z,27.40
2023-02-01T01:51:24.657Z,27.20
2023-02-01T01:54:16.621Z,27.30
2023-02-01T01:56:57.640Z,27.30
2023-02-01T01:59:36.679Z,27.40
2023-02-01T02:02:17.148Z,27.40
2023-02-01T02:05:51.518Z,27.40
2023-02-01T02:08:29.621Z,27.50
2023-02-01T02:11:13.759Z,27.60
2023-02-01T02:14:03.350Z,27.60
2023-02-01T02:20:51.985Z,27.60
2023-02-01T02:23:54.644Z,27.70
2023-02-01T02:27:37.512Z,27.80
2023-02-01T02:30:41.214Z,27.80
2023-02-01T02:35:00.754Z,27.80
2023-02-01T02:38:22.746Z,27.80
2023-02-01T02:41:08.370Z,27.90
2023-02-01T02:44:15.793Z,27.90
2023-02-01T02:47:10.667Z,27.90
2023-02-01T02:53:49.957Z,27.80
2023-02-01T02:56:44.261Z,27.60
2023-02-01T02:59:38.852Z,27.60
2023-02-01T03:02:31.171Z,27.50
2023-02-01T03:05:08.505Z,27.50
2023-02-01T03:08:01.054Z,27.60
2023-02-01T03:10:49.487Z,27.60
2023-02-01T03:13:40.056Z,27.60
2023-02-01T03:16:28.717Z,27.60
2023-02-01T03:19:14.806Z,27.70
2023-02-01T03:24:37.707Z,27.70
2023-02-01T03:27:21.227Z,27.60
2023-02-01T03:30:01.819Z,27.60
2023-02-01T03:32:55.001Z,27.60
2023-02-01T03:35:33.940Z,27.60
2023-02-01T03:38:18.948Z,27.60
2023-02-01T03:41:01.363Z,27.60
2023-02-01T03:43:54.932Z,27.60
2023-02-01T03:46:37.347Z,27.70
2023-02-01T03:49:15.453Z,27.80
2023-02-01T03:51:51.240Z,27.80
2023-02-01T03:54:28.856Z,27.70
2023-02-01T03:57:10.737Z,27.70
2023-02-01T04:00:04.785Z,27.60
2023-02-01T04:02:48.755Z,27.70
2023-02-01T04:05:35.174Z,27.60
2023-02-01T04:08:14.531Z,27.50
2023-02-01T04:10:51.799Z,27.60
2023-02-01T04:13:53.980Z,27.60
2023-02-01T04:17:00.197Z,27.60
2023-02-01T04:19:39.783Z,27.60
2023-02-01T04:22:19.854Z,27.70
2023-02-01T04:25:06.805Z,27.70
2023-02-01T04:27:42.713Z,27.80
2023-02-01T04:30:19.443Z,27.80
2023-02-01T04:33:29.907Z,27.80
2023-02-01T04:36:51.153Z,27.70
2023-02-01T04:39:22.292Z,27.60
2023-02-01T04:42:05.717Z,27.50
2023-02-01T04:44:44.428Z,27.50
2023-02-01T04:47:23.153Z,27.50
2023-02-01T04:50:49.135Z,27.50
2023-02-01T04:53:46.448Z,27.50
2023-02-01T04:56:22.073Z,27.40
2023-02-01T05:02:25.662Z,26.90
2023-02-01T05:05:02.029Z,26.90
2023-02-01T05:07:48.560Z,26.90
2023-02-01T05:10:26.502Z,26.70
2023-02-01T05:13:18.165Z,26.70
2023-02-01T05:15:56.081Z,26.70
2023-02-01T05:18:57.505Z,26.60
2023-02-01T05:21:32.629Z,26.70
2023-02-01T05:24:26.439Z,26.60
2023-02-01T05:27:07.161Z,26.60
2023-02-01T05:35:58.012Z,26.50
2023-02-01T05:38:43.117Z,26.60
2023-02-01T05:41:18.758Z,26.50
2023-02-01T05:44:06.148Z,26.50
2023-02-01T20:55:06.028Z,24.50
2023-02-01T21:05:41.624Z,25.10
2023-02-01T21:08:19.070Z,25.30
2023-02-01T21:11:02.772Z,25.30
2023-02-01T21:13:45.331Z,25.40
2023-02-01T21:16:21.162Z,25.50
2023-02-01T21:18:57.345Z,25.50
2023-02-01T21:21:33.129Z,25.60
2023-02-01T21:24:11.542Z,25.70
2023-02-01T21:26:47.291Z,25.80
2023-02-01T21:29:23.085Z,25.80
2023-02-01T21:31:59.918Z,25.90
2023-02-01T21:34:35.533Z,26.00
2023-02-01T21:37:10.813Z,26.00
2023-02-01T21:39:47.886Z,26.10
2023-02-01T21:42:25.993Z,26.20
2023-02-01T21:45:04.180Z,26.40
2023-02-01T21:47:40.216Z,26.40
2023-02-01T21:50:20.401Z,26.30
2023-02-01T21:52:56.228Z,26.10
2023-02-01T21:55:33.882Z,26.00
2023-02-01T21:58:14.261Z,26.10
2023-02-01T22:00:50.293Z,26.20
2023-02-01T22:03:26.991Z,26.30
2023-02-01T22:06:02.761Z,26.50
2023-02-01T22:08:40.611Z,26.60
2023-02-01T22:11:18.218Z,26.40
2023-02-01T22:13:54.085Z,26.40
2023-02-01T22:16:31.907Z,26.50
2023-02-01T22:19:07.918Z,26.40
2023-02-01T22:21:43.770Z,26.40
2023-02-01T22:24:22.448Z,26.40
2023-02-01T22:27:13.282Z,26.40
2023-02-01T22:29:49.920Z,26.50
2023-02-01T22:32:27.999Z,26.50
2023-02-01T22:35:03.452Z,26.40
2023-02-01T22:37:41.547Z,26.30
2023-02-01T22:40:21.304Z,26.20
2023-02-01T22:42:58.804Z,26.10
2023-02-01T22:45:34.398Z,26.10
2023-02-01T22:48:11.614Z,26.10
2023-02-01T22:50:46.823Z,26.10
2023-02-01T22:53:22.269Z,26.10
